Walford, Iowa
Current Conditions -  °F | °C
As of 12:52 PM on Sunday 23 Nov 2014 (Local Time) from KCID Reporting Station
Moderate Rain Moderate Rain  
Wind Chill: 50°   Ceiling: 400
Heat Index: 50°   Visibility: 4mi
Dew Point: 50°   Wind: 7mph
Humidity: 100%   Direction: 140°SE
Pressure: 29.4"   Gusts: NA
Location:  41.88°N, 91.83°W
Report Text: KCID 231852Z 14006KT 4SM RA BR OVC004 10/10 A2940 RMK AO2 SLP958 P0012 T01000100
Loading
Personal Weather Stations






























Interactive Weather Map New forecast layout! Learn more

10-Day Weather Forecast

Advertisements
Track Severe Weather on mobile